Time;durP1;ratioP1;P1;durP2;ratioP2;P2;SDS_P1;SDS_P2;PMS_P1;PMS_P2;Temp;Humidity;BMP_temperature;BMP_pressure;BME280_temperature;BME280_humidity;BME280_pressure;Samples;Min_cycle;Max_cycle;Signal;HPM_P1;HPM_P2
2021/09/13 00:00:24;;;;;;;51.37;27.37;;;;;;;14.03;77.42;100409.95;1742496;81;21250;-55
2021/09/13 00:03:32;;;;;;;59.63;28.67;;;;;;;14.01;77.17;100411.52;1741503;82;21218;-56
2021/09/13 00:06:37;;;;;;;46.80;27.48;;;;;;;13.97;76.98;100409.37;1728359;82;21228;-56
2021/09/13 00:09:44;;;;;;;54.93;26.50;;;;;;;13.92;76.90;100403.59;1728562;82;21235;-57
2021/09/13 00:12:52;;;;;;;54.33;26.57;;;;;;;13.88;76.83;100399.52;1728490;83;21204;-56
2021/09/13 00:15:59;;;;;;;50.73;26.23;;;;;;;13.84;77.02;100400.97;1713135;83;21883;-56
2021/09/13 00:19:07;;;;;;;55.70;26.68;;;;;;;13.80;76.99;100408.76;1728589;82;21209;-56
2021/09/13 00:22:16;;;;;;;49.23;25.90;;;;;;;13.76;77.02;100401.09;1728207;83;21653;-55
2021/09/13 00:25:22;;;;;;;46.25;25.88;;;;;;;13.71;77.12;100405.81;1728586;83;21202;-56
2021/09/13 00:28:28;;;;;;;46.35;25.17;;;;;;;13.73;77.30;100409.75;1728425;83;21228;-56
2021/09/13 00:31:35;;;;;;;47.27;25.90;;;;;;;13.72;77.22;100405.27;1728539;82;21256;-56
2021/09/13 00:34:40;;;;;;;46.45;24.80;;;;;;;13.75;77.10;100404.91;1728565;83;21181;-56
2021/09/13 00:37:49;;;;;;;42.17;23.80;;;;;;;13.75;77.00;100402.98;1728494;83;21694;-56
2021/09/13 00:40:55;;;;;;;44.38;24.05;;;;;;;13.73;76.72;100395.44;1728368;82;21292;-56
2021/09/13 00:44:05;;;;;;;41.37;25.43;;;;;;;13.68;76.67;100395.20;1728764;82;21204;-56
2021/09/13 00:47:12;;;;;;;40.70;25.27;;;;;;;13.62;76.68;100404.76;1728593;83;21243;-56
2021/09/13 00:50:19;;;;;;;38.98;23.57;;;;;;;13.53;76.72;100395.77;1717955;82;21355;-56
2021/09/13 00:53:25;;;;;;;49.58;25.08;;;;;;;13.48;76.95;100392.23;1728594;83;21209;-56
2021/09/13 00:56:32;;;;;;;42.40;24.87;;;;;;;13.45;77.10;100393.99;1728407;83;21224;-57
2021/09/13 00:59:37;;;;;;;43.75;25.48;;;;;;;13.43;77.21;100398.83;1728400;83;21264;-57
2021/09/13 01:02:44;;;;;;;42.27;23.85;;;;;;;13.42;77.37;100396.27;1728418;82;21201;-56
2021/09/13 01:05:51;;;;;;;50.30;25.37;;;;;;;13.39;77.32;100390.65;1731056;82;21172;-55
2021/09/13 01:08:58;;;;;;;35.03;23.57;;;;;;;13.34;77.28;100390.88;1740563;82;21204;-57
2021/09/13 01:12:05;;;;;;;41.68;23.62;;;;;;;13.31;77.60;100393.52;1736504;82;21312;-56
2021/09/13 01:15:12;;;;;;;47.50;25.35;;;;;;;13.32;77.81;100396.58;1736383;82;21180;-56
2021/09/13 01:18:19;;;;;;;47.35;26.05;;;;;;;13.32;77.76;100402.59;1736565;82;21208;-57
2021/09/13 01:21:30;;;;;;;54.48;26.73;;;;;;;13.30;77.87;100405.53;1737127;82;21212;-56
2021/09/13 01:24:38;;;;;;;46.48;26.02;;;;;;;13.29;77.81;100398.34;1737000;81;21339;-57
2021/09/13 01:27:44;;;;;;;48.20;26.55;;;;;;;13.23;77.71;100398.25;1736607;82;21692;-59
2021/09/13 01:30:50;;;;;;;43.52;25.12;;;;;;;13.16;78.18;100410.54;1736295;82;21376;-56
2021/09/13 01:33:57;;;;;;;51.80;26.42;;;;;;;13.17;78.31;100401.27;1737104;81;21413;-57
2021/09/13 01:37:04;;;;;;;40.08;24.75;;;;;;;13.15;78.45;100405.23;1737644;81;21212;-56
2021/09/13 01:40:09;;;;;;;48.25;25.85;;;;;;;13.15;78.48;100400.60;1737240;81;21358;-57
2021/09/13 01:43:15;;;;;;;46.37;26.57;;;;;;;13.10;78.32;100404.44;1746575;82;21330;-56
2021/09/13 01:46:20;;;;;;;43.52;25.35;;;;;;;13.08;78.59;100401.56;1736757;81;21303;-57
2021/09/13 01:49:27;;;;;;;54.73;25.97;;;;;;;13.06;78.51;100405.02;1736040;82;21374;-57
2021/09/13 01:52:32;;;;;;;56.58;26.35;;;;;;;13.03;78.50;100406.23;1736731;82;21395;-57
2021/09/13 01:55:39;;;;;;;46.28;25.90;;;;;;;13.00;78.27;100402.50;1737255;82;21216;-57
2021/09/13 01:58:45;;;;;;;50.88;26.37;;;;;;;12.96;77.97;100404.41;1736107;82;21915;-57
2021/09/13 02:01:51;;;;;;;45.38;26.00;;;;;;;12.87;77.78;100406.43;1737038;81;21723;-57
2021/09/13 02:04:56;;;;;;;44.30;24.77;;;;;;;12.82;77.97;100406.66;1737527;81;21350;-57
2021/09/13 02:08:02;;;;;;;41.53;23.62;;;;;;;12.76;78.00;100396.43;1747690;80;21196;-56
2021/09/13 02:11:07;;;;;;;42.43;24.15;;;;;;;12.67;78.28;100394.83;1728452;82;21232;-56
2021/09/13 02:14:14;;;;;;;46.83;24.18;;;;;;;12.60;78.67;100391.98;1758087;81;21314;-56
2021/09/13 02:17:22;;;;;;;56.00;25.10;;;;;;;12.55;79.09;100394.44;1746880;81;21318;-57
2021/09/13 02:20:28;;;;;;;58.08;26.70;;;;;;;12.53;79.40;100396.51;1747079;81;21325;-56
2021/09/13 02:23:36;;;;;;;65.12;27.02;;;;;;;12.50;79.61;100390.02;1757527;81;21203;-57
2021/09/13 02:26:43;;;;;;;70.40;28.00;;;;;;;12.46;79.66;100394.20;1747549;81;21369;-56
2021/09/13 02:29:51;;;;;;;92.75;30.50;;;;;;;12.48;80.02;100393.47;1740243;82;21341;-56
2021/09/13 02:32:58;;;;;;;100.70;30.82;;;;;;;12.47;79.77;100390.91;1728794;81;21217;-56
2021/09/13 02:36:04;;;;;;;81.92;30.20;;;;;;;12.43;79.68;100398.66;1742008;81;21290;-56
2021/09/13 02:39:14;;;;;;;75.17;30.68;;;;;;;12.39;79.59;100390.99;1746739;82;21322;-56
2021/09/13 02:42:19;;;;;;;70.87;29.30;;;;;;;12.33;79.56;100400.84;1735843;82;21231;-56
2021/09/13 02:45:25;;;;;;;66.30;29.95;;;;;;;12.26;79.66;100392.17;1741405;82;21208;-57
2021/09/13 02:48:31;;;;;;;95.42;32.03;;;;;;;12.20;79.91;100399.75;1741406;81;21307;-57
2021/09/13 02:51:40;;;;;;;61.08;28.75;;;;;;;12.17;80.13;100400.99;1741393;81;21283;-57
2021/09/13 02:54:45;;;;;;;71.42;29.67;;;;;;;12.16;80.27;100393.81;1741396;81;21546;-57
2021/09/13 02:57:51;;;;;;;74.35;29.87;;;;;;;12.16;80.13;100398.44;1738715;81;21251;-57
2021/09/13 03:00:56;;;;;;;76.37;29.15;;;;;;;12.11;80.09;100392.65;1740957;82;21283;-56
2021/09/13 03:04:04;;;;;;;72.65;28.87;;;;;;;12.09;80.19;100398.33;1741143;82;21211;-59
2021/09/13 03:07:10;;;;;;;66.42;28.92;;;;;;;12.08;80.19;100400.20;1741569;81;21231;-58
2021/09/13 03:10:20;;;;;;;71.30;29.87;;;;;;;12.07;80.20;100407.25;1687924;84;21230;-58
2021/09/13 03:13:27;;;;;;;68.37;32.00;;;;;;;12.06;80.63;100401.44;1709902;84;21267;-60
2021/09/13 03:16:33;;;;;;;61.65;29.00;;;;;;;12.08;80.68;100404.32;1705584;84;21245;-60
2021/09/13 03:19:40;;;;;;;58.45;29.45;;;;;;;12.11;80.80;100406.37;1703331;83;21291;-60
2021/09/13 03:22:45;;;;;;;65.67;28.87;;;;;;;12.13;81.06;100410.63;1710328;83;21236;-59
2021/09/13 03:25:50;;;;;;;60.80;29.90;;;;;;;12.17;81.07;100403.73;1710054;83;21236;-59
2021/09/13 03:28:57;;;;;;;81.92;34.10;;;;;;;12.18;81.04;100408.72;1705302;83;21710;-60
2021/09/13 03:32:02;;;;;;;67.50;31.20;;;;;;;12.17;81.04;100407.86;1705250;83;21244;-60
2021/09/13 03:35:07;;;;;;;100.85;33.67;;;;;;;12.19;80.97;100404.41;1710454;84;21264;-60
2021/09/13 03:38:12;;;;;;;98.35;34.48;;;;;;;12.18;80.86;100408.17;1710780;83;21196;-60
2021/09/13 03:41:20;;;;;;;90.97;33.30;;;;;;;12.16;80.93;100410.78;1710551;84;21315;-61
2021/09/13 03:44:25;;;;;;;93.50;32.90;;;;;;;12.17;80.95;100406.99;1710607;84;21216;-60
2021/09/13 03:47:33;;;;;;;75.75;31.05;;;;;;;12.15;80.98;100411.30;1708284;84;21200;-60
2021/09/13 03:50:38;;;;;;;77.05;31.07;;;;;;;12.17;81.18;100411.11;1702428;84;21205;-60
2021/09/13 03:53:45;;;;;;;83.82;33.30;;;;;;;12.19;81.12;100409.91;1693270;84;21185;-60
2021/09/13 03:56:50;;;;;;;75.08;34.40;;;;;;;12.17;81.04;100409.73;1682079;85;21271;-59
2021/09/13 03:59:55;;;;;;;95.60;35.70;;;;;;;12.13;81.01;100409.25;1681859;85;21232;-59
2021/09/13 04:03:05;;;;;;;74.80;33.02;;;;;;;12.13;81.04;100413.91;1681911;85;21245;-59
2021/09/13 04:06:20;;;;;;;71.57;32.70;;;;;;;12.13;81.07;100407.88;1682080;85;21228;-58
2021/09/13 04:12:43;;;;;;;81.40;31.70;;;;;;;12.22;81.37;100410.91;1710276;83;21406;-59
2021/09/13 04:16:01;;;;;;;82.37;31.73;;;;;;;12.29;81.40;100415.13;1707546;83;21464;-59
2021/09/13 04:19:25;;;;;;;70.67;31.42;;;;;;;12.40;81.38;100416.05;1713967;83;21981;-58
2021/09/13 04:22:48;;;;;;;66.45;30.17;;;;;;;12.49;81.15;100419.04;1712070;83;21363;-59
2021/09/13 04:25:56;;;;;;;66.60;31.23;;;;;;;12.54;81.01;100414.67;1711084;83;21361;-60
2021/09/13 04:29:20;;;;;;;75.75;30.62;;;;;;;12.60;80.82;100416.70;1711689;83;21365;-59
2021/09/13 04:32:45;;;;;;;90.92;29.23;;;;;;;12.66;80.70;100413.19;1711587;83;21711;-59
2021/09/13 04:36:08;;;;;;;89.65;30.68;;;;;;;12.77;80.65;100415.98;1711702;83;21404;-60
2021/09/13 04:39:15;;;;;;;97.88;30.55;;;;;;;12.85;80.54;100415.38;1722243;82;21386;-61
2021/09/13 04:42:33;;;;;;;93.17;29.37;;;;;;;12.93;80.34;100418.03;1737648;82;21242;-60
2021/09/13 04:45:42;;;;;;;70.28;28.70;;;;;;;13.04;80.18;100417.58;1710706;82;21253;-58
2021/09/13 04:48:53;;;;;;;75.22;28.17;;;;;;;13.16;79.90;100423.45;1702751;83;21224;-59
2021/09/13 04:52:16;;;;;;;63.58;28.23;;;;;;;13.30;79.63;100414.33;1665061;85;21166;-60
2021/09/13 04:55:25;;;;;;;59.08;27.07;;;;;;;13.45;79.29;100414.62;1647401;85;21232;-59
2021/09/13 04:58:31;;;;;;;65.32;26.40;;;;;;;13.62;78.92;100413.02;1650322;85;21232;-59
2021/09/13 05:01:36;;;;;;;64.27;25.57;;;;;;;13.75;78.48;100415.36;1674552;85;21229;-59
2021/09/13 05:04:43;;;;;;;56.33;24.20;;;;;;;13.90;78.09;100418.06;1693631;83;21522;-59
2021/09/13 05:07:49;;;;;;;65.70;26.17;;;;;;;14.03;77.67;100411.32;1684392;84;21216;-57
2021/09/13 05:10:57;;;;;;;45.30;23.80;;;;;;;14.16;77.19;100416.95;1727587;81;21173;-57
2021/09/13 05:14:02;;;;;;;44.03;25.00;;;;;;;14.30;76.61;100422.94;1729506;82;21744;-59
2021/09/13 05:17:11;;;;;;;46.10;24.23;;;;;;;14.41;75.83;100419.09;1704231;82;22024;-54
2021/09/13 05:20:18;;;;;;;47.88;22.95;;;;;;;14.55;75.37;100414.55;1729700;80;21670;-54
2021/09/13 05:23:23;;;;;;;44.45;22.45;;;;;;;14.68;74.94;100418.79;1730604;82;21255;-54
2021/09/13 05:26:28;;;;;;;37.35;22.37;;;;;;;14.79;74.73;100409.41;1709132;83;21219;-55
2021/09/13 05:29:36;;;;;;;44.42;22.02;;;;;;;14.93;74.33;100414.50;1711360;82;21215;-60
2021/09/13 05:32:44;;;;;;;43.75;21.82;;;;;;;15.06;73.85;100420.09;1728420;82;21360;-57
2021/09/13 05:35:51;;;;;;;41.28;21.80;;;;;;;15.19;73.46;100414.62;1717061;82;21176;-55
2021/09/13 05:38:56;;;;;;;40.65;22.10;;;;;;;15.34;73.16;100415.86;1732803;82;21200;-55
2021/09/13 05:42:20;;;;;;;42.03;21.73;;;;;;;15.46;72.98;100410.95;1716769;82;21227;-54
2021/09/13 05:45:25;;;;;;;36.98;20.82;;;;;;;15.61;72.81;100408.90;1739373;82;21230;-55
2021/09/13 05:48:32;;;;;;;36.08;21.27;;;;;;;15.72;72.62;100408.30;1739609;81;21160;-55
2021/09/13 05:51:39;;;;;;;35.05;20.90;;;;;;;15.87;72.27;100411.71;1739676;81;21191;-55
2021/09/13 05:54:48;;;;;;;36.77;21.82;;;;;;;15.99;72.16;100403.15;1720959;82;21783;-56
2021/09/13 05:57:53;;;;;;;40.00;22.27;;;;;;;16.12;72.17;100407.31;1740748;81;21221;-55
2021/09/13 06:00:59;;;;;;;41.25;20.43;;;;;;;16.25;71.97;100406.47;1725287;82;21657;-55
2021/09/13 06:04:06;;;;;;;32.70;20.25;;;;;;;16.39;71.59;100412.31;1740230;82;21395;-54
2021/09/13 06:07:11;;;;;;;35.28;20.80;;;;;;;16.51;71.09;100407.87;1737883;81;21262;-54
2021/09/13 06:10:18;;;;;;;31.07;19.17;;;;;;;16.65;70.57;100411.49;1734565;82;21569;-54
2021/09/13 06:13:23;;;;;;;34.85;19.50;;;;;;;16.79;70.03;100410.41;1713418;81;21216;-54
2021/09/13 06:16:28;;;;;;;37.45;20.17;;;;;;;16.94;69.59;100413.77;1739890;81;21658;-55
2021/09/13 06:19:35;;;;;;;33.95;17.95;;;;;;;17.07;69.21;100414.59;1713080;83;21263;-55
2021/09/13 06:22:44;;;;;;;36.28;19.25;;;;;;;17.22;68.51;100418.49;1713810;83;21215;-55
2021/09/13 06:25:54;;;;;;;32.40;18.37;;;;;;;17.35;67.87;100415.13;1716427;83;21867;-56
2021/09/13 06:29:00;;;;;;;30.37;17.87;;;;;;;17.51;67.44;100418.83;1738464;82;21199;-55
2021/09/13 06:32:06;;;;;;;30.25;17.75;;;;;;;17.66;67.17;100417.16;1732615;82;21234;-55
2021/09/13 06:35:13;;;;;;;34.15;17.85;;;;;;;17.80;67.10;100419.65;1728043;81;21204;-55
2021/09/13 06:38:21;;;;;;;32.90;17.73;;;;;;;17.96;66.94;100417.41;1709669;83;21757;-57
2021/09/13 06:41:27;;;;;;;31.02;17.52;;;;;;;18.10;66.74;100417.11;1736745;82;21260;-55
2021/09/13 06:44:36;;;;;;;26.85;16.90;;;;;;;18.24;65.63;100416.46;1709870;83;21207;-54
2021/09/13 06:47:44;;;;;;;26.42;17.40;;;;;;;18.37;65.10;100414.45;1710301;83;21331;-55
2021/09/13 06:50:52;;;;;;;33.60;16.02;;;;;;;18.51;64.58;100411.91;1710323;83;21358;-55
2021/09/13 06:53:59;;;;;;;29.55;17.20;;;;;;;18.65;64.32;100419.03;1710366;83;21346;-55
2021/09/13 06:57:06;;;;;;;28.73;17.23;;;;;;;18.80;63.58;100414.53;1711147;82;21279;-56
2021/09/13 07:00:18;;;;;;;25.65;15.40;;;;;;;18.93;63.28;100418.00;1710550;83;21207;-55
2021/09/13 07:03:25;;;;;;;23.98;15.40;;;;;;;19.06;62.55;100412.84;1724356;82;21181;-55
2021/09/13 07:06:34;;;;;;;31.35;15.45;;;;;;;19.20;61.92;100415.26;1707414;83;21213;-55
2021/09/13 07:09:42;;;;;;;24.10;14.85;;;;;;;19.33;61.73;100415.67;1728972;83;21189;-56
2021/09/13 07:12:50;;;;;;;26.62;15.28;;;;;;;19.47;61.37;100417.23;1707413;83;21268;-56
2021/09/13 07:15:57;;;;;;;28.07;15.20;;;;;;;19.59;61.16;100406.16;1734942;82;21949;-56
2021/09/13 07:19:06;;;;;;;28.70;15.10;;;;;;;19.71;60.39;100412.65;1736458;81;21326;-55
2021/09/13 07:22:13;;;;;;;31.27;14.25;;;;;;;19.79;60.00;100409.55;1734864;82;21362;-54
2021/09/13 07:25:20;;;;;;;20.77;13.15;;;;;;;19.90;59.97;100405.97;1740368;82;21432;-58
2021/09/13 07:28:26;;;;;;;29.23;14.15;;;;;;;20.01;59.44;100407.94;1743270;82;21272;-54
2021/09/13 07:31:32;;;;;;;23.45;13.88;;;;;;;20.12;59.21;100402.97;1728241;81;21390;-54
2021/09/13 07:34:40;;;;;;;31.10;15.13;;;;;;;20.23;58.71;100402.18;1738552;82;21210;-55
2021/09/13 07:37:46;;;;;;;19.98;13.13;;;;;;;20.33;58.87;100405.20;1729221;80;21189;-56
2021/09/13 07:40:52;;;;;;;20.32;12.85;;;;;;;20.46;58.39;100406.38;1740157;82;21366;-58
2021/09/13 07:43:58;;;;;;;19.02;12.45;;;;;;;20.59;58.06;100404.78;1730838;82;21324;-56
2021/09/13 07:47:05;;;;;;;21.65;12.90;;;;;;;20.68;57.08;100405.58;1735088;81;21357;-56
2021/09/13 07:50:11;;;;;;;20.30;12.75;;;;;;;20.81;56.71;100398.92;1709705;81;21413;-53
2021/09/13 07:53:18;;;;;;;22.58;13.20;;;;;;;20.92;56.58;100393.90;1744133;80;21816;-53
2021/09/13 07:56:24;;;;;;;18.82;13.30;;;;;;;21.04;56.71;100405.89;1714586;83;21557;-52
2021/09/13 07:59:29;;;;;;;29.00;15.48;;;;;;;21.15;55.78;100398.64;1731050;80;21226;-53
2021/09/13 08:02:34;;;;;;;23.83;12.90;;;;;;;21.25;55.41;100391.34;1711950;81;21590;-54
2021/09/13 08:05:40;;;;;;;22.25;11.93;;;;;;;21.37;54.91;100396.37;1723801;83;21251;-53
2021/09/13 08:08:46;;;;;;;20.60;11.73;;;;;;;21.49;54.51;100397.17;1719826;83;22042;-53
2021/09/13 08:11:53;;;;;;;20.65;13.05;;;;;;;21.59;54.02;100388.18;1735578;82;21715;-52
2021/09/13 08:14:59;;;;;;;30.70;13.45;;;;;;;21.71;53.35;100386.19;1730918;81;21259;-50
2021/09/13 08:18:06;;;;;;;18.92;11.15;;;;;;;21.82;53.43;100390.36;1716638;82;21176;-53
2021/09/13 08:21:15;;;;;;;18.82;11.00;;;;;;;21.93;52.47;100385.28;1718097;82;21208;-52
2021/09/13 08:24:21;;;;;;;19.25;10.10;;;;;;;22.04;52.20;100381.59;1723297;82;21880;-52
2021/09/13 08:27:29;;;;;;;13.60;9.83;;;;;;;22.13;51.44;100380.11;1730756;82;21161;-49
2021/09/13 08:30:35;;;;;;;18.55;10.25;;;;;;;22.26;51.24;100375.30;1728690;82;21212;-50
2021/09/13 08:33:41;;;;;;;20.95;11.15;;;;;;;22.40;51.34;100383.09;1728499;82;21196;-52
2021/09/13 08:36:47;;;;;;;17.80;10.88;;;;;;;22.54;50.94;100376.10;1722887;82;21604;-51
2021/09/13 08:39:53;;;;;;;14.73;10.40;;;;;;;22.66;50.33;100369.88;1732065;82;21925;-50
2021/09/13 08:43:02;;;;;;;15.10;10.08;;;;;;;22.79;49.44;100372.86;1731400;82;21759;-49
2021/09/13 08:46:17;;;;;;;17.02;10.75;;;;;;;22.90;49.52;100369.13;1727758;82;21212;-49
2021/09/13 08:52:34;;;;;;;17.67;9.93;;;;;;;23.11;49.17;100370.58;1721446;82;21342;-50
2021/09/13 08:55:41;;;;;;;19.27;9.05;;;;;;;23.22;48.37;100366.82;1721289;82;21983;-50
2021/09/13 08:58:46;;;;;;;14.87;8.68;;;;;;;23.34;47.22;100365.34;1718356;82;21801;-51
2021/09/13 09:01:51;;;;;;;14.87;9.13;;;;;;;23.45;46.72;100365.19;1720716;82;21204;-49
2021/09/13 09:05:03;;;;;;;14.93;9.78;;;;;;;23.56;46.21;100356.40;1720577;82;21188;-49
2021/09/13 09:08:12;;;;;;;13.38;8.20;;;;;;;23.67;46.18;100354.56;1719697;82;21176;-49
2021/09/13 09:11:20;;;;;;;13.32;7.78;;;;;;;23.78;44.88;100355.81;1728270;81;21741;-51
2021/09/13 09:14:35;;;;;;;16.77;8.53;;;;;;;23.89;44.98;100353.42;1717649;82;21357;-51
2021/09/13 09:17:42;;;;;;;13.48;7.33;;;;;;;24.01;42.87;100355.53;1716375;82;21326;-50
2021/09/13 09:20:49;;;;;;;10.08;6.50;;;;;;;24.13;42.07;100345.59;1691791;82;21192;-50
2021/09/13 09:24:10;;;;;;;12.28;6.53;;;;;;;24.23;40.60;100343.72;1717713;82;21187;-51
2021/09/13 09:27:16;;;;;;;13.40;6.35;;;;;;;24.32;39.72;100346.34;1713432;82;21215;-51
2021/09/13 09:30:20;;;;;;;10.18;6.42;;;;;;;24.42;39.32;100345.58;1674293;85;21217;-52
2021/09/13 09:33:26;;;;;;;10.13;5.92;;;;;;;24.50;39.12;100343.11;1712761;83;21768;-51
2021/09/13 09:36:32;;;;;;;10.20;6.60;;;;;;;24.57;38.99;100338.15;1668902;83;21601;-50
2021/09/13 09:39:43;;;;;;;11.68;7.03;;;;;;;24.63;39.29;100339.86;1685254;84;21307;-52
2021/09/13 09:42:48;;;;;;;12.75;6.78;;;;;;;24.71;39.88;100342.20;1700683;83;21272;-51
2021/09/13 09:45:54;;;;;;;9.70;5.70;;;;;;;24.81;39.79;100335.83;1739836;82;21572;-50
2021/09/13 09:49:13;;;;;;;10.38;5.67;;;;;;;24.90;38.63;100338.40;1741278;81;21211;-50
2021/09/13 09:52:19;;;;;;;17.15;6.83;;;;;;;25.00;38.45;100330.92;1739290;81;21649;-48
2021/09/13 09:55:28;;;;;;;14.07;5.60;;;;;;;25.15;39.76;100322.31;1701171;83;21232;-50
2021/09/13 09:58:35;;;;;;;14.58;5.50;;;;;;;25.34;39.12;100330.56;1724464;82;21342;-51
2021/09/13 10:01:51;;;;;;;8.58;5.00;;;;;;;25.45;36.79;100322.48;1739433;82;21196;-53
2021/09/13 10:04:59;;;;;;;13.85;5.85;;;;;;;25.56;36.03;100322.80;1705024;83;21800;-51
2021/09/13 10:08:06;;;;;;;9.18;6.12;;;;;;;25.71;37.12;100320.03;1692258;84;21217;-51
2021/09/13 10:11:14;;;;;;;8.75;5.33;;;;;;;25.92;37.45;100317.56;1690940;84;21280;-52
2021/09/13 10:14:31;;;;;;;10.18;5.55;;;;;;;26.09;36.33;100314.81;1678664;84;21189;-53
2021/09/13 10:17:37;;;;;;;12.53;6.30;;;;;;;26.25;35.38;100315.66;1672587;84;21290;-52
2021/09/13 10:20:44;;;;;;;10.08;5.95;;;;;;;26.28;35.15;100310.89;1740092;82;21220;-52
2021/09/13 10:23:50;;;;;;;12.37;5.92;;;;;;;26.29;35.33;100302.77;1693672;83;21513;-54
2021/09/13 10:27:02;;;;;;;10.75;6.00;;;;;;;26.35;34.76;100304.45;1675539;85;21285;-53
2021/09/13 10:30:29;;;;;;;11.08;6.12;;;;;;;26.46;33.89;100297.70;1710397;83;21522;-52
2021/09/13 10:33:36;;;;;;;8.85;5.92;;;;;;;26.57;33.82;100293.77;1692440;83;21260;-52
2021/09/13 10:37:19;;;;;;;11.08;6.22;;;;;;;26.72;34.26;100299.38;1693647;84;21280;-51
2021/09/13 10:40:31;;;;;;;10.23;6.15;;;;;;;26.86;33.44;100289.23;1652228;85;21383;-53
2021/09/13 10:43:37;;;;;;;8.30;6.12;;;;;;;27.04;33.07;100281.59;1703484;84;21315;-57
2021/09/13 10:47:12;;;;;;;13.88;5.80;;;;;;;27.11;32.72;100284.96;1678540;84;21903;-57
2021/09/13 10:50:46;;;;;;;12.13;5.92;;;;;;;27.10;32.20;100283.84;1676404;85;21266;-57
2021/09/13 10:53:52;;;;;;;12.90;6.85;;;;;;;27.05;32.29;100288.89;1719637;82;21726;-58
2021/09/13 10:56:59;;;;;;;11.97;7.05;;;;;;;27.02;33.03;100283.84;1707272;82;21702;-58
2021/09/13 11:00:06;;;;;;;10.00;6.97;;;;;;;27.03;33.21;100283.30;1738819;82;21192;-59
2021/09/13 11:03:36;;;;;;;11.85;6.62;;;;;;;27.01;32.23;100280.77;1711243;83;21207;-57
2021/09/13 11:06:51;;;;;;;10.85;6.45;;;;;;;27.01;32.08;100270.08;1711887;83;21366;-59
2021/09/13 11:10:03;;;;;;;13.93;6.92;;;;;;;27.02;32.09;100276.81;1735288;81;21208;-58
2021/09/13 11:13:09;;;;;;;12.18;5.40;;;;;;;27.06;31.95;100275.14;1735410;82;21564;-58
2021/09/13 11:16:15;;;;;;;8.30;6.03;;;;;;;27.02;32.10;100270.38;1739002;82;21764;-58
2021/09/13 11:19:22;;;;;;;14.70;7.83;;;;;;;27.00;32.46;100276.29;1738971;82;21724;-59
2021/09/13 11:22:30;;;;;;;15.50;7.33;;;;;;;26.98;32.66;100270.10;1740550;82;21287;-58
2021/09/13 11:25:35;;;;;;;8.73;6.03;;;;;;;26.93;32.76;100270.11;1697428;84;21233;-58
2021/09/13 11:28:40;;;;;;;10.98;6.60;;;;;;;26.90;32.12;100263.66;1733077;82;21796;-57
2021/09/13 11:31:59;;;;;;;10.32;6.30;;;;;;;26.90;32.33;100255.23;1740385;82;21570;-56
2021/09/13 11:35:07;;;;;;;9.53;5.37;;;;;;;26.90;32.17;100255.23;1731514;82;21292;-57
2021/09/13 11:38:13;;;;;;;19.60;11.83;;;;;;;26.87;31.82;100254.95;1712854;83;21195;-56
2021/09/13 11:41:22;;;;;;;17.60;11.45;;;;;;;26.79;32.12;100249.92;1715148;83;21247;-57
2021/09/13 11:44:27;;;;;;;20.97;11.57;;;;;;;26.71;32.41;100245.73;1709197;83;21238;-58
2021/09/13 11:47:38;;;;;;;15.60;8.38;;;;;;;26.71;33.06;100244.33;1713624;83;21176;-58
2021/09/13 11:50:44;;;;;;;18.60;8.13;;;;;;;26.84;33.05;100246.55;1728164;82;21925;-58
2021/09/13 11:54:15;;;;;;;12.07;7.78;;;;;;;26.92;32.44;100237.53;1723019;82;21315;-57
2021/09/13 11:57:45;;;;;;;13.80;8.68;;;;;;;27.06;32.61;100237.75;1738716;82;21541;-58
2021/09/13 12:00:54;;;;;;;13.50;7.30;;;;;;;27.24;32.59;100225.28;1709225;83;21780;-57
2021/09/13 12:03:59;;;;;;;10.95;6.70;;;;;;;27.47;32.06;100236.45;1710052;83;21689;-56
2021/09/13 12:07:15;;;;;;;10.70;6.85;;;;;;;27.65;31.34;100228.16;1689316;83;21198;-56
2021/09/13 12:10:25;;;;;;;12.63;6.78;;;;;;;27.83;30.60;100228.05;1731565;82;21189;-57
2021/09/13 12:13:32;;;;;;;11.68;7.00;;;;;;;28.00;30.40;100230.50;1736674;82;21200;-57
2021/09/13 12:16:39;;;;;;;10.20;7.40;;;;;;;28.16;30.59;100223.61;1695601;83;21198;-57
2021/09/13 12:19:50;;;;;;;11.95;7.75;;;;;;;28.33;30.54;100222.59;1695336;82;21256;-58
2021/09/13 12:23:08;;;;;;;14.43;7.45;;;;;;;28.41;29.88;100216.32;1690883;84;21249;-58
2021/09/13 12:26:13;;;;;;;15.85;7.53;;;;;;;28.44;29.98;100215.17;1677328;84;21271;-58
2021/09/13 12:29:18;;;;;;;9.73;6.95;;;;;;;28.44;30.81;100215.17;1694075;84;21233;-58
2021/09/13 12:32:34;;;;;;;16.00;8.38;;;;;;;28.42;30.64;100216.58;1654688;85;21237;-59
2021/09/13 12:35:51;;;;;;;;;;;;;;;28.41;30.50;100206.47;1670732;84;21247;-57
2021/09/13 12:39:02;;;;;;;12.00;7.58;;;;;;;28.44;30.81;100204.45;1750904;81;20200;-58
2021/09/13 12:42:08;;;;;;;10.45;7.25;;;;;;;28.46;30.70;100205.86;1741489;82;21199;-59
2021/09/13 12:45:14;;;;;;;8.85;7.00;;;;;;;28.44;30.88;100206.72;1729014;82;21271;-59
2021/09/13 12:48:23;;;;;;;11.73;7.55;;;;;;;28.42;31.16;100199.69;1709625;83;21243;-58
2021/09/13 12:51:29;;;;;;;13.00;7.75;;;;;;;28.39;30.76;100199.72;1710523;83;21231;-57
2021/09/13 12:54:42;;;;;;;13.48;7.72;;;;;;;28.37;30.68;100194.13;1709957;83;21191;-58
2021/09/13 12:57:48;;;;;;;11.33;8.00;;;;;;;28.33;31.03;100193.02;1710710;83;21203;-57
2021/09/13 13:00:55;;;;;;;10.82;7.35;;;;;;;28.26;31.18;100197.59;1693066;83;21321;-58
2021/09/13 13:04:10;;;;;;;11.68;7.40;;;;;;;28.20;31.18;100188.08;1684343;85;21719;-57
2021/09/13 13:07:19;;;;;;;12.10;7.47;;;;;;;28.05;31.35;100186.23;1673164;84;21202;-58
2021/09/13 13:10:24;;;;;;;9.40;7.55;;;;;;;27.89;31.90;100190.91;1672711;85;21280;-56
2021/09/13 13:13:32;;;;;;;11.18;7.12;;;;;;;27.72;31.81;100187.05;1686445;84;21276;-56
2021/09/13 13:16:49;;;;;;;19.07;8.15;;;;;;;27.53;32.32;100188.31;1708840;83;21207;-57
2021/09/13 13:19:56;;;;;;;10.75;7.65;;;;;;;27.36;32.49;100189.28;1708026;82;21326;-54
2021/09/13 13:23:04;;;;;;;18.85;13.53;;;;;;;27.19;32.68;100193.56;1709302;84;21218;-55
2021/09/13 13:26:09;;;;;;;15.50;11.78;;;;;;;27.03;33.09;100185.78;1693173;84;21563;-54
2021/09/13 13:29:16;;;;;;;14.80;10.53;;;;;;;26.90;33.41;100188.35;1685507;84;21196;-54
2021/09/13 13:32:23;;;;;;;16.73;11.10;;;;;;;26.76;33.86;100182.52;1703457;83;21259;-54
2021/09/13 13:35:28;;;;;;;15.93;11.08;;;;;;;26.63;34.05;100181.69;1740026;81;21736;-54
2021/09/13 13:38:34;;;;;;;14.63;10.35;;;;;;;26.52;34.45;100184.80;1680188;83;21213;-55
2021/09/13 13:41:40;;;;;;;18.50;11.00;;;;;;;26.41;35.84;100179.78;1741182;82;21737;-55
2021/09/13 13:44:48;;;;;;;19.80;11.63;;;;;;;26.30;36.71;100180.92;1732675;81;21176;-54
2021/09/13 13:47:56;;;;;;;31.82;20.80;;;;;;;26.24;36.54;100180.66;1741275;82;21248;-54
2021/09/13 13:51:04;;;;;;;37.38;21.62;;;;;;;26.24;36.32;100186.28;1734685;81;21739;-55
2021/09/13 13:54:12;;;;;;;32.73;16.42;;;;;;;26.23;36.16;100181.77;1682715;83;21382;-53
2021/09/13 13:57:18;;;;;;;19.35;12.20;;;;;;;26.18;36.29;100180.36;1743477;82;21191;-56
2021/09/13 14:00:25;;;;;;;19.48;10.80;;;;;;;26.12;36.67;100178.14;1740466;81;21801;-55
2021/09/13 14:03:31;;;;;;;12.20;9.40;;;;;;;26.06;36.95;100177.88;1710379;84;21749;-55
2021/09/13 14:06:38;;;;;;;20.72;9.83;;;;;;;25.99;36.78;100180.08;1710794;83;21391;-55
2021/09/13 14:09:42;;;;;;;15.15;9.13;;;;;;;25.90;36.59;100174.77;1676054;85;21252;-57
2021/09/13 14:12:49;;;;;;;21.57;11.38;;;;;;;25.82;36.67;100173.92;1739115;81;21211;-54
2021/09/13 14:15:55;;;;;;;20.82;12.28;;;;;;;25.82;36.63;100177.28;1732659;81;21237;-55
2021/09/13 14:19:04;;;;;;;25.90;12.10;;;;;;;25.85;36.78;100173.91;1737764;82;21187;-56
2021/09/13 14:22:10;;;;;;;19.90;11.53;;;;;;;25.85;37.03;100173.91;1703557;82;21212;-56
2021/09/13 14:25:15;;;;;;;22.32;11.43;;;;;;;25.81;37.30;100172.25;1695303;84;21239;-56